sensor_id;sensor_type;location;lat;lon;timestamp;temperature;humidity
41816;DHT22;27814;53.452;-6.180;2022-10-16T00:01:38;10.60;99.90
41816;DHT22;27814;53.452;-6.180;2022-10-16T00:04:09;10.60;99.90
41816;DHT22;27814;53.452;-6.180;2022-10-16T00:06:38;10.50;99.90
41816;DHT22;27814;53.452;-6.180;2022-10-16T00:09:07;10.50;99.90
41816;DHT22;27814;53.452;-6.180;2022-10-16T00:11:38;10.50;99.90
41816;DHT22;27814;53.452;-6.180;2022-10-16T00:14:09;10.50;99.90
41816;DHT22;27814;53.452;-6.180;2022-10-16T00:16:38;10.50;99.90
41816;DHT22;27814;53.452;-6.180;2022-10-16T00:19:07;10.50;99.90
41816;DHT22;27814;53.452;-6.180;2022-10-16T00:21:35;10.40;99.90
41816;DHT22;27814;53.452;-6.180;2022-10-16T00:24:06;10.40;99.90
41816;DHT22;27814;53.452;-6.180;2022-10-16T00:26:37;10.40;99.90
41816;DHT22;27814;53.452;-6.180;2022-10-16T00:29:06;10.40;99.90
41816;DHT22;27814;53.452;-6.180;2022-10-16T00:31:34;10.40;99.90
41816;DHT22;27814;53.452;-6.180;2022-10-16T00:34:03;10.40;99.90
41816;DHT22;27814;53.452;-6.180;2022-10-16T00:36:32;10.40;99.90
41816;DHT22;27814;53.452;-6.180;2022-10-16T00:39:00;10.40;99.90
41816;DHT22;27814;53.452;-6.180;2022-10-16T00:41:31;10.40;99.90
41816;DHT22;27814;53.452;-6.180;2022-10-16T00:44:02;10.40;99.90
41816;DHT22;27814;53.452;-6.180;2022-10-16T00:46:38;10.40;99.90
41816;DHT22;27814;53.452;-6.180;2022-10-16T00:49:09;10.40;99.90
41816;DHT22;27814;53.452;-6.180;2022-10-16T00:51:40;10.40;99.90
41816;DHT22;27814;53.452;-6.180;2022-10-16T00:54:13;10.40;99.90
41816;DHT22;27814;53.452;-6.180;2022-10-16T00:56:43;10.40;99.90
41816;DHT22;27814;53.452;-6.180;2022-10-16T00:59:16;10.40;99.90
41816;DHT22;27814;53.452;-6.180;2022-10-16T01:01:46;10.40;99.90
41816;DHT22;27814;53.452;-6.180;2022-10-16T01:04:14;10.40;99.90
41816;DHT22;27814;53.452;-6.180;2022-10-16T01:06:49;10.40;99.90
41816;DHT22;27814;53.452;-6.180;2022-10-16T01:09:23;10.40;99.90
41816;DHT22;27814;53.452;-6.180;2022-10-16T01:12:01;10.40;99.90
41816;DHT22;27814;53.452;-6.180;2022-10-16T01:14:39;10.30;99.90
41816;DHT22;27814;53.452;-6.180;2022-10-16T01:17:12;10.30;99.90
41816;DHT22;27814;53.452;-6.180;2022-10-16T01:20:03;10.30;99.90
41816;DHT22;27814;53.452;-6.180;2022-10-16T01:22:39;10.30;99.90
41816;DHT22;27814;53.452;-6.180;2022-10-16T01:25:16;10.30;99.90
41816;DHT22;27814;53.452;-6.180;2022-10-16T01:27:48;10.30;99.90
41816;DHT22;27814;53.452;-6.180;2022-10-16T01:30:20;10.30;99.90
41816;DHT22;27814;53.452;-6.180;2022-10-16T01:32:52;10.30;99.90
41816;DHT22;27814;53.452;-6.180;2022-10-16T01:35:26;10.30;99.90
41816;DHT22;27814;53.452;-6.180;2022-10-16T01:37:58;10.30;99.90
41816;DHT22;27814;53.452;-6.180;2022-10-16T01:40:29;10.30;99.90
41816;DHT22;27814;53.452;-6.180;2022-10-16T01:43:03;10.30;99.90
41816;DHT22;27814;53.452;-6.180;2022-10-16T01:45:33;10.30;99.90
41816;DHT22;27814;53.452;-6.180;2022-10-16T01:48:03;10.30;99.90
41816;DHT22;27814;53.452;-6.180;2022-10-16T01:50:37;10.30;99.90
41816;DHT22;27814;53.452;-6.180;2022-10-16T01:53:08;10.30;99.90
41816;DHT22;27814;53.452;-6.180;2022-10-16T01:55:41;10.30;99.90
41816;DHT22;27814;53.452;-6.180;2022-10-16T01:58:14;10.30;99.90
41816;DHT22;27814;53.452;-6.180;2022-10-16T02:00:45;10.30;99.90
41816;DHT22;27814;53.452;-6.180;2022-10-16T02:03:17;10.30;99.90
41816;DHT22;27814;53.452;-6.180;2022-10-16T02:05:49;10.30;99.90
41816;DHT22;27814;53.452;-6.180;2022-10-16T02:08:18;10.30;99.90
41816;DHT22;27814;53.452;-6.180;2022-10-16T02:10:47;10.30;99.90
41816;DHT22;27814;53.452;-6.180;2022-10-16T02:13:21;10.30;99.90
41816;DHT22;27814;53.452;-6.180;2022-10-16T02:15:50;10.20;99.90
41816;DHT22;27814;53.452;-6.180;2022-10-16T02:18:19;10.20;99.90
41816;DHT22;27814;53.452;-6.180;2022-10-16T02:20:51;10.20;99.90
41816;DHT22;27814;53.452;-6.180;2022-10-16T02:23:28;10.20;99.90
41816;DHT22;27814;53.452;-6.180;2022-10-16T02:25:59;10.20;99.90
41816;DHT22;27814;53.452;-6.180;2022-10-16T02:28:35;10.20;99.90
41816;DHT22;27814;53.452;-6.180;2022-10-16T02:31:09;10.20;99.90
41816;DHT22;27814;53.452;-6.180;2022-10-16T02:33:40;10.10;99.90
41816;DHT22;27814;53.452;-6.180;2022-10-16T02:36:11;10.10;99.90
41816;DHT22;27814;53.452;-6.180;2022-10-16T02:38:40;10.10;99.90
41816;DHT22;27814;53.452;-6.180;2022-10-16T02:41:08;10.10;99.90
41816;DHT22;27814;53.452;-6.180;2022-10-16T02:43:38;10.10;99.90
41816;DHT22;27814;53.452;-6.180;2022-10-16T02:46:07;10.10;99.90
41816;DHT22;27814;53.452;-6.180;2022-10-16T02:48:35;10.10;99.90
41816;DHT22;27814;53.452;-6.180;2022-10-16T02:51:04;10.10;99.90
41816;DHT22;27814;53.452;-6.180;2022-10-16T02:53:32;10.10;99.90
41816;DHT22;27814;53.452;-6.180;2022-10-16T02:56:01;10.10;99.90
41816;DHT22;27814;53.452;-6.180;2022-10-16T02:58:29;10.10;99.90
41816;DHT22;27814;53.452;-6.180;2022-10-16T03:00:59;10.10;99.90
41816;DHT22;27814;53.452;-6.180;2022-10-16T03:03:27;10.10;99.90
41816;DHT22;27814;53.452;-6.180;2022-10-16T03:05:56;10.10;99.90
41816;DHT22;27814;53.452;-6.180;2022-10-16T03:08:24;10.10;99.90
41816;DHT22;27814;53.452;-6.180;2022-10-16T03:10:52;10.10;99.90
41816;DHT22;27814;53.452;-6.180;2022-10-16T03:13:21;10.10;99.90
41816;DHT22;27814;53.452;-6.180;2022-10-16T03:15:49;10.10;99.90
41816;DHT22;27814;53.452;-6.180;2022-10-16T03:18:19;10.00;99.90
41816;DHT22;27814;53.452;-6.180;2022-10-16T03:20:47;10.10;99.90
41816;DHT22;27814;53.452;-6.180;2022-10-16T03:23:15;10.00;99.90
41816;DHT22;27814;53.452;-6.180;2022-10-16T03:25:44;10.00;99.90
41816;DHT22;27814;53.452;-6.180;2022-10-16T03:28:14;10.10;99.90
41816;DHT22;27814;53.452;-6.180;2022-10-16T03:30:43;10.00;99.90
41816;DHT22;27814;53.452;-6.180;2022-10-16T03:33:11;10.00;99.90
41816;DHT22;27814;53.452;-6.180;2022-10-16T03:35:41;10.10;99.90
41816;DHT22;27814;53.452;-6.180;2022-10-16T03:38:10;10.10;99.90
41816;DHT22;27814;53.452;-6.180;2022-10-16T03:40:38;10.00;99.90
41816;DHT22;27814;53.452;-6.180;2022-10-16T03:43:06;10.00;99.90
41816;DHT22;27814;53.452;-6.180;2022-10-16T03:45:35;10.00;99.90
41816;DHT22;27814;53.452;-6.180;2022-10-16T03:48:03;10.00;99.90
41816;DHT22;27814;53.452;-6.180;2022-10-16T03:50:32;10.00;99.90
41816;DHT22;27814;53.452;-6.180;2022-10-16T03:53:02;10.00;99.90
41816;DHT22;27814;53.452;-6.180;2022-10-16T03:55:30;10.00;99.90
41816;DHT22;27814;53.452;-6.180;2022-10-16T03:57:59;9.90;99.90
41816;DHT22;27814;53.452;-6.180;2022-10-16T04:00:27;10.00;99.90
41816;DHT22;27814;53.452;-6.180;2022-10-16T04:02:55;9.90;99.90
41816;DHT22;27814;53.452;-6.180;2022-10-16T04:05:23;9.90;99.90
41816;DHT22;27814;53.452;-6.180;2022-10-16T04:07:52;10.00;99.90
41816;DHT22;27814;53.452;-6.180;2022-10-16T04:10:22;9.90;99.90
41816;DHT22;27814;53.452;-6.180;2022-10-16T04:12:50;9.90;99.90
41816;DHT22;27814;53.452;-6.180;2022-10-16T04:15:18;9.90;99.90
41816;DHT22;27814;53.452;-6.180;2022-10-16T04:17:47;9.90;99.90
41816;DHT22;27814;53.452;-6.180;2022-10-16T04:20:15;9.90;99.90
41816;DHT22;27814;53.452;-6.180;2022-10-16T04:22:44;9.90;99.90
41816;DHT22;27814;53.452;-6.180;2022-10-16T04:25:12;9.90;99.90
41816;DHT22;27814;53.452;-6.180;2022-10-16T04:27:42;9.90;99.90
41816;DHT22;27814;53.452;-6.180;2022-10-16T04:30:12;9.90;99.90
41816;DHT22;27814;53.452;-6.180;2022-10-16T04:32:40;9.90;99.90
41816;DHT22;27814;53.452;-6.180;2022-10-16T04:35:09;9.90;99.90
41816;DHT22;27814;53.452;-6.180;2022-10-16T04:37:37;9.90;99.90
41816;DHT22;27814;53.452;-6.180;2022-10-16T04:40:06;9.90;99.90
41816;DHT22;27814;53.452;-6.180;2022-10-16T04:42:35;9.80;99.90
41816;DHT22;27814;53.452;-6.180;2022-10-16T04:45:06;9.90;99.90
41816;DHT22;27814;53.452;-6.180;2022-10-16T04:47:40;9.90;99.90
41816;DHT22;27814;53.452;-6.180;2022-10-16T04:50:09;9.90;99.90
41816;DHT22;27814;53.452;-6.180;2022-10-16T04:52:37;9.80;99.90
41816;DHT22;27814;53.452;-6.180;2022-10-16T04:55:06;9.80;99.90
41816;DHT22;27814;53.452;-6.180;2022-10-16T04:57:35;9.80;99.90
41816;DHT22;27814;53.452;-6.180;2022-10-16T05:00:05;9.80;99.90
41816;DHT22;27814;53.452;-6.180;2022-10-16T05:02:34;9.70;99.90
41816;DHT22;27814;53.452;-6.180;2022-10-16T05:05:04;9.70;99.90
41816;DHT22;27814;53.452;-6.180;2022-10-16T05:07:32;9.70;99.90
41816;DHT22;27814;53.452;-6.180;2022-10-16T05:10:00;9.70;99.90
41816;DHT22;27814;53.452;-6.180;2022-10-16T05:12:29;9.70;99.90
41816;DHT22;27814;53.452;-6.180;2022-10-16T05:14:57;9.70;99.90
41816;DHT22;27814;53.452;-6.180;2022-10-16T05:17:27;9.80;99.90
41816;DHT22;27814;53.452;-6.180;2022-10-16T05:19:55;9.70;99.90
41816;DHT22;27814;53.452;-6.180;2022-10-16T05:22:24;9.70;99.90
41816;DHT22;27814;53.452;-6.180;2022-10-16T05:24:52;9.70;99.90
41816;DHT22;27814;53.452;-6.180;2022-10-16T05:27:20;9.70;99.90
41816;DHT22;27814;53.452;-6.180;2022-10-16T05:29:49;9.70;99.90
41816;DHT22;27814;53.452;-6.180;2022-10-16T05:32:18;9.70;99.90
41816;DHT22;27814;53.452;-6.180;2022-10-16T05:34:48;9.70;99.90
41816;DHT22;27814;53.452;-6.180;2022-10-16T05:37:16;9.70;99.90
41816;DHT22;27814;53.452;-6.180;2022-10-16T05:39:45;9.70;99.90
41816;DHT22;27814;53.452;-6.180;2022-10-16T05:42:13;9.80;99.90
41816;DHT22;27814;53.452;-6.180;2022-10-16T05:44:41;9.70;99.90
41816;DHT22;27814;53.452;-6.180;2022-10-16T05:47:11;9.70;99.90
41816;DHT22;27814;53.452;-6.180;2022-10-16T05:49:41;9.70;99.90
41816;DHT22;27814;53.452;-6.180;2022-10-16T05:52:10;9.70;99.90
41816;DHT22;27814;53.452;-6.180;2022-10-16T05:54:39;9.70;99.90
41816;DHT22;27814;53.452;-6.180;2022-10-16T05:57:07;9.70;99.90
41816;DHT22;27814;53.452;-6.180;2022-10-16T05:59:35;9.70;99.90
41816;DHT22;27814;53.452;-6.180;2022-10-16T06:02:04;9.70;99.90
41816;DHT22;27814;53.452;-6.180;2022-10-16T06:04:32;9.70;99.90
41816;DHT22;27814;53.452;-6.180;2022-10-16T06:07:00;9.70;99.90
41816;DHT22;27814;53.452;-6.180;2022-10-16T06:09:30;9.70;99.90
41816;DHT22;27814;53.452;-6.180;2022-10-16T06:11:59;9.70;99.90
41816;DHT22;27814;53.452;-6.180;2022-10-16T06:14:27;9.70;99.90
41816;DHT22;27814;53.452;-6.180;2022-10-16T06:16:55;9.70;99.90
41816;DHT22;27814;53.452;-6.180;2022-10-16T06:19:24;9.70;99.90
41816;DHT22;27814;53.452;-6.180;2022-10-16T06:21:53;9.70;99.90
41816;DHT22;27814;53.452;-6.180;2022-10-16T06:24:21;9.70;99.90
41816;DHT22;27814;53.452;-6.180;2022-10-16T06:26:51;9.70;99.90
41816;DHT22;27814;53.452;-6.180;2022-10-16T06:29:19;9.70;99.90
41816;DHT22;27814;53.452;-6.180;2022-10-16T06:31:47;9.70;99.90
41816;DHT22;27814;53.452;-6.180;2022-10-16T06:34:16;9.60;99.90
41816;DHT22;27814;53.452;-6.180;2022-10-16T06:36:44;9.70;99.90
41816;DHT22;27814;53.452;-6.180;2022-10-16T06:39:12;9.70;99.90
41816;DHT22;27814;53.452;-6.180;2022-10-16T06:41:41;9.70;99.90
41816;DHT22;27814;53.452;-6.180;2022-10-16T06:44:10;9.70;99.90
41816;DHT22;27814;53.452;-6.180;2022-10-16T06:46:39;9.70;99.90
41816;DHT22;27814;53.452;-6.180;2022-10-16T06:49:07;9.70;99.90
41816;DHT22;27814;53.452;-6.180;2022-10-16T06:51:35;9.70;99.90
41816;DHT22;27814;53.452;-6.180;2022-10-16T06:54:09;9.70;99.90
41816;DHT22;27814;53.452;-6.180;2022-10-16T06:56:37;9.70;99.90
41816;DHT22;27814;53.452;-6.180;2022-10-16T06:59:06;9.80;99.90
41816;DHT22;27814;53.452;-6.180;2022-10-16T07:01:35;9.80;99.90
41816;DHT22;27814;53.452;-6.180;2022-10-16T07:04:04;9.80;99.90
41816;DHT22;27814;53.452;-6.180;2022-10-16T07:06:33;9.80;99.90
41816;DHT22;27814;53.452;-6.180;2022-10-16T07:09:08;9.80;99.90
41816;DHT22;27814;53.452;-6.180;2022-10-16T07:11:38;9.80;99.90
41816;DHT22;27814;53.452;-6.180;2022-10-16T07:14:15;9.70;99.90
41816;DHT22;27814;53.452;-6.180;2022-10-16T07:16:46;9.80;99.90
41816;DHT22;27814;53.452;-6.180;2022-10-16T07:19:15;9.80;99.90
41816;DHT22;27814;53.452;-6.180;2022-10-16T07:21:44;9.80;99.90
41816;DHT22;27814;53.452;-6.180;2022-10-16T07:24:14;9.80;99.90
41816;DHT22;27814;53.452;-6.180;2022-10-16T07:26:45;9.80;99.90
41816;DHT22;27814;53.452;-6.180;2022-10-16T07:29:15;9.80;99.90
41816;DHT22;27814;53.452;-6.180;2022-10-16T07:31:48;9.90;99.90
41816;DHT22;27814;53.452;-6.180;2022-10-16T07:34:17;9.90;99.90
41816;DHT22;27814;53.452;-6.180;2022-10-16T07:36:47;9.90;99.90
41816;DHT22;27814;53.452;-6.180;2022-10-16T07:39:16;10.00;99.90
41816;DHT22;27814;53.452;-6.180;2022-10-16T07:41:45;10.00;99.90
41816;DHT22;27814;53.452;-6.180;2022-10-16T07:44:13;10.10;99.90
41816;DHT22;27814;53.452;-6.180;2022-10-16T07:46:44;10.10;99.90
41816;DHT22;27814;53.452;-6.180;2022-10-16T07:49:13;10.20;99.90
41816;DHT22;27814;53.452;-6.180;2022-10-16T07:51:41;10.20;99.90
41816;DHT22;27814;53.452;-6.180;2022-10-16T07:54:10;10.30;99.90
41816;DHT22;27814;53.452;-6.180;2022-10-16T07:56:38;10.30;99.90
41816;DHT22;27814;53.452;-6.180;2022-10-16T07:59:10;10.40;99.90
41816;DHT22;27814;53.452;-6.180;2022-10-16T08:01:38;10.40;99.90
41816;DHT22;27814;53.452;-6.180;2022-10-16T08:04:08;10.40;99.90
41816;DHT22;27814;53.452;-6.180;2022-10-16T08:06:38;10.50;99.90
41816;DHT22;27814;53.452;-6.180;2022-10-16T08:09:08;10.50;99.90
41816;DHT22;27814;53.452;-6.180;2022-10-16T08:11:37;10.50;99.90
41816;DHT22;27814;53.452;-6.180;2022-10-16T08:14:05;10.60;99.90
41816;DHT22;27814;53.452;-6.180;2022-10-16T08:16:33;10.60;99.90
41816;DHT22;27814;53.452;-6.180;2022-10-16T08:19:02;10.60;99.90
41816;DHT22;27814;53.452;-6.180;2022-10-16T08:21:32;10.70;99.90
41816;DHT22;27814;53.452;-6.180;2022-10-16T08:24:00;10.70;99.90
41816;DHT22;27814;53.452;-6.180;2022-10-16T08:26:30;10.70;99.90
41816;DHT22;27814;53.452;-6.180;2022-10-16T08:28:58;10.80;99.90
41816;DHT22;27814;53.452;-6.180;2022-10-16T08:31:27;10.80;99.90
41816;DHT22;27814;53.452;-6.180;2022-10-16T08:33:55;10.90;99.90
41816;DHT22;27814;53.452;-6.180;2022-10-16T08:36:23;10.90;99.90
41816;DHT22;27814;53.452;-6.180;2022-10-16T08:38:53;10.90;99.90
41816;DHT22;27814;53.452;-6.180;2022-10-16T08:41:39;10.90;99.90
41816;DHT22;27814;53.452;-6.180;2022-10-16T08:44:32;11.00;99.90
41816;DHT22;27814;53.452;-6.180;2022-10-16T08:47:09;11.10;99.90
41816;DHT22;27814;53.452;-6.180;2022-10-16T08:49:43;11.10;99.90
41816;DHT22;27814;53.452;-6.180;2022-10-16T08:52:15;11.10;99.90
41816;DHT22;27814;53.452;-6.180;2022-10-16T08:54:47;11.20;99.90
41816;DHT22;27814;53.452;-6.180;2022-10-16T08:57:19;11.30;99.90
41816;DHT22;27814;53.452;-6.180;2022-10-16T08:59:50;11.30;99.90
41816;DHT22;27814;53.452;-6.180;2022-10-16T09:02:24;11.40;99.90
41816;DHT22;27814;53.452;-6.180;2022-10-16T09:05:08;11.50;99.90
41816;DHT22;27814;53.452;-6.180;2022-10-16T09:07:44;11.50;99.90
41816;DHT22;27814;53.452;-6.180;2022-10-16T09:10:26;11.60;99.90
41816;DHT22;27814;53.452;-6.180;2022-10-16T09:13:03;11.70;99.90
41816;DHT22;27814;53.452;-6.180;2022-10-16T09:15:40;11.70;99.90
41816;DHT22;27814;53.452;-6.180;2022-10-16T09:18:17;11.80;99.90
41816;DHT22;27814;53.452;-6.180;2022-10-16T09:20:51;11.90;99.90
41816;DHT22;27814;53.452;-6.180;2022-10-16T09:23:25;11.90;99.90
41816;DHT22;27814;53.452;-6.180;2022-10-16T09:25:56;12.00;99.90
41816;DHT22;27814;53.452;-6.180;2022-10-16T09:28:26;12.00;99.90
41816;DHT22;27814;53.452;-6.180;2022-10-16T09:30:54;12.10;99.90
41816;DHT22;27814;53.452;-6.180;2022-10-16T09:33:25;12.10;99.90
41816;DHT22;27814;53.452;-6.180;2022-10-16T09:35:57;12.10;99.90
41816;DHT22;27814;53.452;-6.180;2022-10-16T09:38:28;12.10;99.90
41816;DHT22;27814;53.452;-6.180;2022-10-16T09:41:00;12.20;99.90
41816;DHT22;27814;53.452;-6.180;2022-10-16T09:43:34;12.20;99.90
41816;DHT22;27814;53.452;-6.180;2022-10-16T09:46:04;12.30;99.90
41816;DHT22;27814;53.452;-6.180;2022-10-16T09:48:37;12.30;99.90
41816;DHT22;27814;53.452;-6.180;2022-10-16T09:51:13;12.40;99.90
41816;DHT22;27814;53.452;-6.180;2022-10-16T09:53:44;12.40;99.90
41816;DHT22;27814;53.452;-6.180;2022-10-16T09:56:22;12.40;99.90
41816;DHT22;27814;53.452;-6.180;2022-10-16T09:58:51;12.50;99.90
41816;DHT22;27814;53.452;-6.180;2022-10-16T10:01:21;12.50;99.90
41816;DHT22;27814;53.452;-6.180;2022-10-16T10:03:50;12.60;99.90
41816;DHT22;27814;53.452;-6.180;2022-10-16T10:06:29;12.70;99.90
41816;DHT22;27814;53.452;-6.180;2022-10-16T10:09:14;12.70;99.90
41816;DHT22;27814;53.452;-6.180;2022-10-16T10:11:49;12.80;99.90
41816;DHT22;27814;53.452;-6.180;2022-10-16T10:14:30;12.80;99.90
41816;DHT22;27814;53.452;-6.180;2022-10-16T10:17:11;12.90;99.90
41816;DHT22;27814;53.452;-6.180;2022-10-16T10:19:42;12.90;99.90
41816;DHT22;27814;53.452;-6.180;2022-10-16T10:22:25;13.00;99.90
41816;DHT22;27814;53.452;-6.180;2022-10-16T10:25:00;13.00;99.90
41816;DHT22;27814;53.452;-6.180;2022-10-16T10:27:36;13.10;99.90
41816;DHT22;27814;53.452;-6.180;2022-10-16T10:30:13;13.20;99.90
41816;DHT22;27814;53.452;-6.180;2022-10-16T10:32:55;13.20;99.90
41816;DHT22;27814;53.452;-6.180;2022-10-16T10:35:33;13.20;99.90
41816;DHT22;27814;53.452;-6.180;2022-10-16T10:38:20;13.20;99.90
41816;DHT22;27814;53.452;-6.180;2022-10-16T10:40:56;13.30;99.90
41816;DHT22;27814;53.452;-6.180;2022-10-16T10:43:38;13.30;99.90
41816;DHT22;27814;53.452;-6.180;2022-10-16T10:46:16;13.30;99.90
41816;DHT22;27814;53.452;-6.180;2022-10-16T10:48:58;13.30;99.90
41816;DHT22;27814;53.452;-6.180;2022-10-16T10:51:37;13.40;99.90
41816;DHT22;27814;53.452;-6.180;2022-10-16T10:54:14;13.40;99.90
41816;DHT22;27814;53.452;-6.180;2022-10-16T10:56:51;13.40;99.90
41816;DHT22;27814;53.452;-6.180;2022-10-16T10:59:47;13.40;99.90
41816;DHT22;27814;53.452;-6.180;2022-10-16T11:02:23;13.40;99.90
41816;DHT22;27814;53.452;-6.180;2022-10-16T11:08:00;13.40;99.90
41816;DHT22;27814;53.452;-6.180;2022-10-16T11:10:34;13.40;99.90
41816;DHT22;27814;53.452;-6.180;2022-10-16T11:13:17;13.40;99.90
41816;DHT22;27814;53.452;-6.180;2022-10-16T11:15:51;13.50;99.90
41816;DHT22;27814;53.452;-6.180;2022-10-16T11:18:24;13.50;99.90
41816;DHT22;27814;53.452;-6.180;2022-10-16T11:20:59;13.60;99.90
41816;DHT22;27814;53.452;-6.180;2022-10-16T11:23:30;13.60;99.90
41816;DHT22;27814;53.452;-6.180;2022-10-16T11:26:02;13.60;99.90
41816;DHT22;27814;53.452;-6.180;2022-10-16T11:28:35;13.60;99.80
41816;DHT22;27814;53.452;-6.180;2022-10-16T11:31:11;13.60;99.80
41816;DHT22;27814;53.452;-6.180;2022-10-16T11:33:45;13.60;99.70
41816;DHT22;27814;53.452;-6.180;2022-10-16T11:36:19;13.60;99.70
41816;DHT22;27814;53.452;-6.180;2022-10-16T11:38:52;13.60;99.70
41816;DHT22;27814;53.452;-6.180;2022-10-16T11:41:27;13.60;99.60
41816;DHT22;27814;53.452;-6.180;2022-10-16T11:44:06;13.60;99.60
41816;DHT22;27814;53.452;-6.180;2022-10-16T11:46:40;13.50;99.50
41816;DHT22;27814;53.452;-6.180;2022-10-16T11:49:33;13.60;99.40
41816;DHT22;27814;53.452;-6.180;2022-10-16T11:52:07;13.50;99.20
41816;DHT22;27814;53.452;-6.180;2022-10-16T11:54:47;13.50;99.10
41816;DHT22;27814;53.452;-6.180;2022-10-16T11:57:20;13.60;99.10
41816;DHT22;27814;53.452;-6.180;2022-10-16T11:59:54;13.60;99.10
41816;DHT22;27814;53.452;-6.180;2022-10-16T12:02:38;13.60;99.00
41816;DHT22;27814;53.452;-6.180;2022-10-16T12:05:23;13.60;99.00
41816;DHT22;27814;53.452;-6.180;2022-10-16T12:08:01;13.60;98.90
41816;DHT22;27814;53.452;-6.180;2022-10-16T12:10:32;13.60;98.80
41816;DHT22;27814;53.452;-6.180;2022-10-16T12:13:30;13.60;98.70
41816;DHT22;27814;53.452;-6.180;2022-10-16T12:16:21;13.60;98.70
41816;DHT22;27814;53.452;-6.180;2022-10-16T12:19:09;13.60;98.70
41816;DHT22;27814;53.452;-6.180;2022-10-16T12:21:38;13.60;98.70
41816;DHT22;27814;53.452;-6.180;2022-10-16T12:24:21;13.60;98.70
41816;DHT22;27814;53.452;-6.180;2022-10-16T12:26:51;13.60;98.70
41816;DHT22;27814;53.452;-6.180;2022-10-16T12:29:27;13.60;98.70
41816;DHT22;27814;53.452;-6.180;2022-10-16T12:31:56;13.60;98.70
41816;DHT22;27814;53.452;-6.180;2022-10-16T12:34:29;13.70;98.70
41816;DHT22;27814;53.452;-6.180;2022-10-16T12:37:10;13.60;98.70
41816;DHT22;27814;53.452;-6.180;2022-10-16T12:39:39;13.70;98.60
41816;DHT22;27814;53.452;-6.180;2022-10-16T12:42:31;13.70;98.50
41816;DHT22;27814;53.452;-6.180;2022-10-16T12:45:01;13.60;98.40
41816;DHT22;27814;53.452;-6.180;2022-10-16T12:47:49;13.70;98.40
41816;DHT22;27814;53.452;-6.180;2022-10-16T12:50:31;13.70;98.40
41816;DHT22;27814;53.452;-6.180;2022-10-16T12:53:01;13.70;98.40
41816;DHT22;27814;53.452;-6.180;2022-10-16T12:55:35;13.70;98.40
41816;DHT22;27814;53.452;-6.180;2022-10-16T12:58:20;13.70;98.50
41816;DHT22;27814;53.452;-6.180;2022-10-16T13:00:55;13.70;98.80
41816;DHT22;27814;53.452;-6.180;2022-10-16T13:03:52;13.70;98.50
41816;DHT22;27814;53.452;-6.180;2022-10-16T13:06:33;13.60;98.60
41816;DHT22;27814;53.452;-6.180;2022-10-16T13:09:20;13.60;98.70
41816;DHT22;27814;53.452;-6.180;2022-10-16T13:12:15;13.60;98.70
41816;DHT22;27814;53.452;-6.180;2022-10-16T13:14:59;13.50;98.80
41816;DHT22;27814;53.452;-6.180;2022-10-16T13:17:35;13.50;98.90
41816;DHT22;27814;53.452;-6.180;2022-10-16T13:20:14;13.50;99.00
41816;DHT22;27814;53.452;-6.180;2022-10-16T13:22:53;13.50;98.90
41816;DHT22;27814;53.452;-6.180;2022-10-16T13:25:28;13.50;98.70
41816;DHT22;27814;53.452;-6.180;2022-10-16T13:28:00;13.40;98.70
41816;DHT22;27814;53.452;-6.180;2022-10-16T13:30:30;13.50;98.80
41816;DHT22;27814;53.452;-6.180;2022-10-16T13:33:02;13.40;98.80
41816;DHT22;27814;53.452;-6.180;2022-10-16T13:35:32;13.40;99.00
41816;DHT22;27814;53.452;-6.180;2022-10-16T13:38:10;13.30;99.20
41816;DHT22;27814;53.452;-6.180;2022-10-16T13:40:49;13.30;99.50
41816;DHT22;27814;53.452;-6.180;2022-10-16T13:43:18;13.30;99.70
41816;DHT22;27814;53.452;-6.180;2022-10-16T13:45:57;13.20;99.80
41816;DHT22;27814;53.452;-6.180;2022-10-16T13:48:26;13.20;99.90
41816;DHT22;27814;53.452;-6.180;2022-10-16T13:51:04;13.20;99.90
41816;DHT22;27814;53.452;-6.180;2022-10-16T13:53:35;13.20;99.90
41816;DHT22;27814;53.452;-6.180;2022-10-16T13:56:06;13.20;99.90
41816;DHT22;27814;53.452;-6.180;2022-10-16T13:58:34;13.20;99.90
41816;DHT22;27814;53.452;-6.180;2022-10-16T14:01:04;13.10;99.90
41816;DHT22;27814;53.452;-6.180;2022-10-16T14:03:33;13.10;99.90
41816;DHT22;27814;53.452;-6.180;2022-10-16T14:06:04;13.10;99.90
41816;DHT22;27814;53.452;-6.180;2022-10-16T14:08:40;13.10;99.90
41816;DHT22;27814;53.452;-6.180;2022-10-16T14:11:10;13.10;99.90
41816;DHT22;27814;53.452;-6.180;2022-10-16T14:13:44;13.10;99.90
41816;DHT22;27814;53.452;-6.180;2022-10-16T14:16:17;13.10;99.90
41816;DHT22;27814;53.452;-6.180;2022-10-16T14:18:53;13.10;99.90
41816;DHT22;27814;53.452;-6.180;2022-10-16T14:21:23;13.20;99.90
41816;DHT22;27814;53.452;-6.180;2022-10-16T14:23:54;13.20;99.90
41816;DHT22;27814;53.452;-6.180;2022-10-16T14:26:24;13.20;99.90
41816;DHT22;27814;53.452;-6.180;2022-10-16T14:29:11;13.20;99.90
41816;DHT22;27814;53.452;-6.180;2022-10-16T14:31:40;13.20;99.90
41816;DHT22;27814;53.452;-6.180;2022-10-16T14:34:34;13.20;99.90
41816;DHT22;27814;53.452;-6.180;2022-10-16T14:37:22;13.20;99.90
41816;DHT22;27814;53.452;-6.180;2022-10-16T14:39:56;13.20;99.90
41816;DHT22;27814;53.452;-6.180;2022-10-16T14:42:25;13.20;99.90
41816;DHT22;27814;53.452;-6.180;2022-10-16T14:44:54;13.20;99.90
41816;DHT22;27814;53.452;-6.180;2022-10-16T14:47:25;13.20;99.90
41816;DHT22;27814;53.452;-6.180;2022-10-16T14:49:55;13.20;99.90
41816;DHT22;27814;53.452;-6.180;2022-10-16T14:52:26;13.20;99.90
41816;DHT22;27814;53.452;-6.180;2022-10-16T14:54:55;13.20;99.90
41816;DHT22;27814;53.452;-6.180;2022-10-16T14:57:27;13.20;99.90
41816;DHT22;27814;53.452;-6.180;2022-10-16T14:59:57;13.20;99.90
41816;DHT22;27814;53.452;-6.180;2022-10-16T15:02:29;13.30;99.90
41816;DHT22;27814;53.452;-6.180;2022-10-16T15:04:58;13.30;99.90
41816;DHT22;27814;53.452;-6.180;2022-10-16T15:07:30;13.30;99.90
41816;DHT22;27814;53.452;-6.180;2022-10-16T15:09:59;13.30;99.90
41816;DHT22;27814;53.452;-6.180;2022-10-16T15:12:28;13.30;99.90
41816;DHT22;27814;53.452;-6.180;2022-10-16T15:14:56;13.30;99.90
41816;DHT22;27814;53.452;-6.180;2022-10-16T15:17:24;13.30;99.90
41816;DHT22;27814;53.452;-6.180;2022-10-16T15:19:53;13.30;99.90
41816;DHT22;27814;53.452;-6.180;2022-10-16T15:22:21;13.30;99.90
41816;DHT22;27814;53.452;-6.180;2022-10-16T15:24:50;13.30;99.90
41816;DHT22;27814;53.452;-6.180;2022-10-16T15:27:20;13.30;99.90
41816;DHT22;27814;53.452;-6.180;2022-10-16T15:29:48;13.30;99.90
41816;DHT22;27814;53.452;-6.180;2022-10-16T15:32:16;13.30;99.90
41816;DHT22;27814;53.452;-6.180;2022-10-16T15:34:44;13.30;99.90
41816;DHT22;27814;53.452;-6.180;2022-10-16T15:37:13;13.40;99.90
41816;DHT22;27814;53.452;-6.180;2022-10-16T15:39:41;13.40;99.90
41816;DHT22;27814;53.452;-6.180;2022-10-16T15:42:09;13.40;99.90
41816;DHT22;27814;53.452;-6.180;2022-10-16T15:44:39;13.30;99.90
41816;DHT22;27814;53.452;-6.180;2022-10-16T15:47:07;13.40;99.90
41816;DHT22;27814;53.452;-6.180;2022-10-16T15:49:35;13.40;99.90
41816;DHT22;27814;53.452;-6.180;2022-10-16T15:52:04;13.40;99.90
41816;DHT22;27814;53.452;-6.180;2022-10-16T15:54:32;13.40;99.90